Barstow-Daggett, CA

8:22 AM PDT on July 24, 2014 (GMT -0700)
Big Bear City (KL35) Elev 6752 ft | 34.26 °N, 116.86 °W | Change Station

Current weather conditions updated 7 minutes ago

Clear
Clear
70 °F
Feels Like 70 °F
N
0
Wind Variable Wind from North

Today is forecast to be Much Warmer than yesterday.

Today
High -- | Low -- °F
--% Chance of Precip.
Yesterday
High -- | Low -- °F
Precip. -- in
5:51 AM 7:55 PM
Waning Crescent, 5% visible
Pressure 30.30 in
Visibility 10.0 miles
Clouds Clear
Dew Point 30 °F
Humidity 23%
Rainfall 0.00 in
Snow Depth Not available.
UV 3 out of 12
Pollen 3.90 out of 12
Ozone Good
Flu Activity Not available.
METAR KL35 241515Z AUTO 00000KT 10SM CLR 21/M01 A3030 RMK AO2

More Conditions Fewer Conditions

Pressure 30.30 in
Visibility 10.0 miles
Clouds Clear
Dew Point 30 °F
Humidity 23%
Rainfall 0.00 in
Snow Depth Not available.
UV 3 out of 12
Pollen 3.90 out of 12
Ozone Good
Flu Activity Not available.
METAR KL35 241515Z AUTO 00000KT 10SM CLR 21/M01 A3030 RMK AO2

More Conditions Fewer Conditions

10-Day Weather Forecast

Almanac

Astronomy

Jul. 24, 2014 Rise Set
Actual Time 5:51 AM PDT 7:55 PM PDT
Civil Twilight 5:22 AM PDT 8:24 PM PDT
Nautical Twilight 4:48 AM PDT 8:58 PM PDT
Astronomical Twilight 4:11 AM PDT 9:35 PM PDT
Moon 4:01 AM PDT 6:15 PM PDT
Length of Visible Light 15h 01m
Length of Day
14h 04m
Tomorrow will be 1m 25s shorter.
Waning Crescent, 5% of the Moon is Illuminated
Today
Waning Crescent
Jul 26
New
Aug 3
First Quarter
Aug 10
Full
Aug 17
Last Quarter

Today's Extremes

State Highs State Lows

Community

WunderPhotos

Upload Photos

1,737,042 photos uploaded!

Nearby

Air Quality

  Air Quality AQ Index Pollutant
Yesterday Good
OZONE
Current Good
OZONE
Thursday Moderate
OZONE
Thursday Good
PM10
Thursday Good
CO
Thursday Good
NO2

Snow Depth

Station Depth Elevation
Leavitt Lake 0 in 9400 ft
Leavitt Meadows 1 in 7200 ft
Sonora Pass 0 in 8800 ft
Summit Meadow 1 in 9122 ft
Ebbetts Pass 0 in 8700 ft

Earthquake Activity

City Distance Mag. Time & Date
Pine Valley, California 138 miles 3.1 2:18 AM PDT
2014-07-20
Pine Valley, California 136 miles 2.5 11:09 AM PDT
2014-07-18
Bear Valley Springs, California 106 miles 2.7 6:04 PM PDT
2014-07-17
Minimum magnitude displayed is 2.5.

Coastal Water Temperatures

Place Temperature
No Stations Reporting

Nearby Weather Stations

Station Location Temp. Heat Index Dew Point Humidity Wind Precip. Elev Updated Type
Riverside Road, Newberry Springs, CA 81.6 °F 80 °F 49 °F 32% North  at  14.0 mph 0.00 in / hr 1814 ft 8:22 AM PDT Rapid Fire
MesoWest MANIX , Newberry Springs, CA 80 °F 78 °F - - North  at  - 0.00 in / hr 1796 ft 7:15 AM PDT MADIS

Show More Stations Show Fewer Stations